Time;durP1;ratioP1;P1;durP2;ratioP2;P2;SDS_P1;SDS_P2;PMS_P1;PMS_P2;Temp;Humidity;BMP_temperature;BMP_pressure;BME280_temperature;BME280_humidity;BME280_pressure;Samples;Min_cycle;Max_cycle;Signal;HPM_P1;HPM_P2
2023/06/18 00:01:49;;;;;;;;;;;;;;;;;;5092598;28;19982;-81
2023/06/18 00:04:15;;;;;;;;;;;;;;;;;;5092449;28;20285;-82
2023/06/18 00:06:41;;;;;;;;;;;;;;;;;;5092482;28;19998;-82
2023/06/18 00:09:07;;;;;;;;;;;;;;;;;;5092203;28;19924;-82
2023/06/18 00:11:33;;;;;;;;;;;;;;;;;;5092002;28;19928;-82
2023/06/18 00:13:59;;;;;;;;;;;;;;;;;;5091905;28;20369;-82
2023/06/18 00:16:25;;;;;;;;;;;;;;;;;;5096641;28;19960;-82
2023/06/18 00:18:51;;;;;;;;;;;;;;;;;;5092184;28;19970;-82
2023/06/18 00:21:17;;;;;;;;;;;;;;;;;;5074990;28;19920;-81
2023/06/18 00:23:43;;;;;;;;;;;;;;;;;;5092508;28;19920;-81
2023/06/18 00:26:08;;;;;;;;;;;;;;;;;;5092423;28;19950;-81
2023/06/18 00:28:34;;;;;;;;;;;;;;;;;;5092184;28;19920;-81
2023/06/18 00:31:01;;;;;;;;;;;;;;;;;;5091535;28;20377;-81
2023/06/18 00:33:27;;;;;;;;;;;;;;;;;;5092145;28;20308;-81
2023/06/18 00:35:56;;;;;;;;;;;;;;;;;;5092128;28;19928;-81
2023/06/18 00:38:23;;;;;;;;;;;;;;;;;;5085159;28;19919;-81
2023/06/18 00:40:49;;;;;;;;;;;;;;;;;;5111883;28;19964;-82
2023/06/18 00:43:16;;;;;;;;;;;;;;;;;;5095454;28;19924;-81
2023/06/18 00:45:42;;;;;;;;;;;;;;;;;;5112331;28;20326;-81
2023/06/18 00:48:08;;;;;;;;;;;;;;;;;;5112327;28;19946;-81
2023/06/18 00:50:35;;;;;;;;;;;;;;;;;;5094812;28;20296;-81
2023/06/18 00:53:01;;;;;;;;;;;;;;;;;;5112449;28;19919;-81
2023/06/18 00:55:27;;;;;;;;;;;;;;;;;;5095661;28;19919;-81
2023/06/18 00:57:59;;;;;;;;;;;;;;;;;;5103640;28;19931;-81
2023/06/18 01:00:25;;;;;;;;;;;;;;;;;;5091861;28;20276;-81
2023/06/18 01:02:53;;;;;;;;;;;;;;;;;;5091706;28;19920;-81
2023/06/18 01:05:19;;;;;;;;;;;;;;;;;;5074913;28;19920;-81
2023/06/18 01:07:47;;;;;;;;;;;;;;;;;;5091863;28;20035;-81
2023/06/18 01:10:14;;;;;;;;;;;;;;;;;;5091315;28;19979;-81
2023/06/18 01:12:41;;;;;;;;;;;;;;;;;;5091627;28;19943;-81
2023/06/18 01:15:09;;;;;;;;;;;;;;;;;;5103859;28;19945;-82
2023/06/18 01:17:35;;;;;;;;;;;;;;;;;;5094900;28;19920;-81
2023/06/18 01:20:08;;;;;;;;;;;;;;;;;;5111517;28;20422;-81
2023/06/18 01:22:37;;;;;;;;;;;;;;;;;;5112034;28;20018;-81
2023/06/18 01:25:03;;;;;;;;;;;;;;;;;;5112813;28;20002;-81
2023/06/18 01:27:31;;;;;;;;;;;;;;;;;;5098648;28;20018;-81
2023/06/18 01:32:30;;;;;;;;;;;;;;;;;;5132616;27;19927;-81
2023/06/18 01:34:56;;;;;;;;;;;;;;;;;;5115159;28;19919;-81
2023/06/18 01:37:24;;;;;;;;;;;;;;;;;;5115010;28;19935;-81
2023/06/18 01:39:50;;;;;;;;;;;;;;;;;;5115113;28;19920;-81
2023/06/18 01:42:16;;;;;;;;;;;;;;;;;;5098256;28;19920;-81
2023/06/18 01:44:42;;;;;;;;;;;;;;;;;;5115206;28;19969;-82
2023/06/18 01:47:08;;;;;;;;;;;;;;;;;;5114919;28;19920;-81
2023/06/18 01:49:34;;;;;;;;;;;;;;;;;;5114877;28;19920;-81
2023/06/18 01:52:00;;;;;;;;;;;;;;;;;;5098189;28;20407;-80
2023/06/18 01:54:26;;;;;;;;;;;;;;;;;;5115337;28;19919;-81
2023/06/18 01:56:52;;;;;;;;;;;;;;;;;;5098094;28;20484;-80
2023/06/18 01:59:18;;;;;;;;;;;;;;;;;;5097947;28;19919;-81
2023/06/18 02:01:44;;;;;;;;;;;;;;;;;;5114672;28;20300;-81
2023/06/18 02:04:09;;;;;;;;;;;;;;;;;;5114990;28;19920;-81
2023/06/18 02:06:35;;;;;;;;;;;;;;;;;;5097945;28;19926;-81
2023/06/18 02:09:01;;;;;;;;;;;;;;;;;;5114990;28;20387;-80
2023/06/18 02:11:27;;;;;;;;;;;;;;;;;;5114509;28;19931;-81
2023/06/18 02:13:53;;;;;;;;;;;;;;;;;;5110981;28;19924;-81
2023/06/18 02:16:19;;;;;;;;;;;;;;;;;;5094370;28;19920;-80
2023/06/18 02:18:45;;;;;;;;;;;;;;;;;;5091745;28;19920;-80
2023/06/18 02:21:11;;;;;;;;;;;;;;;;;;5113952;28;19920;-81
2023/06/18 02:23:37;;;;;;;;;;;;;;;;;;5114507;28;19934;-81
2023/06/18 02:26:03;;;;;;;;;;;;;;;;;;5114622;28;19974;-80
2023/06/18 02:28:29;;;;;;;;;;;;;;;;;;5114423;28;20284;-81
2023/06/18 02:30:55;;;;;;;;;;;;;;;;;;5096998;28;19924;-80
2023/06/18 02:33:22;;;;;;;;;;;;;;;;;;5114728;28;19973;-80
2023/06/18 02:35:48;;;;;;;;;;;;;;;;;;5097397;28;20296;-80
2023/06/18 02:38:14;;;;;;;;;;;;;;;;;;5096517;28;19927;-80
2023/06/18 02:40:40;;;;;;;;;;;;;;;;;;5113874;28;19919;-80
2023/06/18 02:43:08;;;;;;;;;;;;;;;;;;5097517;28;19926;-80
2023/06/18 02:45:34;;;;;;;;;;;;;;;;;;5095925;28;19927;-80
2023/06/18 02:48:00;;;;;;;;;;;;;;;;;;5067889;28;20482;-80
2023/06/18 02:50:26;;;;;;;;;;;;;;;;;;5097973;28;19930;-80
2023/06/18 02:52:52;;;;;;;;;;;;;;;;;;5076535;28;19926;-80
2023/06/18 02:55:18;;;;;;;;;;;;;;;;;;5093616;28;20008;-80
2023/06/18 02:57:44;;;;;;;;;;;;;;;;;;5098121;28;20390;-81
2023/06/18 03:00:10;;;;;;;;;;;;;;;;;;5113386;28;19920;-81
2023/06/18 03:02:36;;;;;;;;;;;;;;;;;;5097024;28;19920;-80
2023/06/18 03:05:02;;;;;;;;;;;;;;;;;;5114161;28;19920;-80
2023/06/18 03:07:28;;;;;;;;;;;;;;;;;;5114013;28;20307;-81
2023/06/18 03:09:54;;;;;;;;;;;;;;;;;;5080149;28;19935;-80
2023/06/18 03:12:20;;;;;;;;;;;;;;;;;;5059685;28;19920;-80
2023/06/18 03:14:46;;;;;;;;;;;;;;;;;;5059540;28;19920;-80
2023/06/18 03:17:12;;;;;;;;;;;;;;;;;;5076303;28;20269;-80
2023/06/18 03:19:38;;;;;;;;;;;;;;;;;;5059515;28;19924;-81
2023/06/18 03:22:03;;;;;;;;;;;;;;;;;;5059529;28;19978;-80
2023/06/18 03:24:34;;;;;;;;;;;;;;;;;;5059404;28;19920;-80
2023/06/18 03:27:00;;;;;;;;;;;;;;;;;;5059432;28;19966;-80
2023/06/18 03:29:26;;;;;;;;;;;;;;;;;;5077274;28;20377;-80
2023/06/18 03:31:52;;;;;;;;;;;;;;;;;;5095984;28;19927;-80
2023/06/18 03:34:20;;;;;;;;;;;;;;;;;;5096157;28;20367;-80
2023/06/18 03:36:46;;;;;;;;;;;;;;;;;;5113075;28;19920;-80
2023/06/18 03:39:13;;;;;;;;;;;;;;;;;;5079690;28;19920;-80
2023/06/18 03:41:38;;;;;;;;;;;;;;;;;;5075336;28;20330;-80
2023/06/18 03:44:04;;;;;;;;;;;;;;;;;;5075864;28;19969;-80
2023/06/18 03:46:30;;;;;;;;;;;;;;;;;;5059126;28;19921;-80
2023/06/18 03:48:56;;;;;;;;;;;;;;;;;;5089746;28;20380;-80
2023/06/18 03:51:22;;;;;;;;;;;;;;;;;;5111971;28;19923;-81
2023/06/18 03:53:48;;;;;;;;;;;;;;;;;;5112756;28;19919;-80
2023/06/18 03:56:14;;;;;;;;;;;;;;;;;;5112856;28;19924;-81
2023/06/18 03:58:40;;;;;;;;;;;;;;;;;;5112362;28;19969;-81
2023/06/18 04:01:07;;;;;;;;;;;;;;;;;;5112328;28;19998;-80
2023/06/18 04:03:33;;;;;;;;;;;;;;;;;;5096011;28;20364;-80
2023/06/18 04:05:58;;;;;;;;;;;;;;;;;;5110901;28;19962;-81
2023/06/18 04:08:25;;;;;;;;;;;;;;;;;;5084651;28;19920;-81
2023/06/18 04:10:51;;;;;;;;;;;;;;;;;;5112178;28;19923;-81
2023/06/18 04:13:17;;;;;;;;;;;;;;;;;;5112542;28;20276;-80
2023/06/18 04:15:43;;;;;;;;;;;;;;;;;;5110999;28;20392;-80
2023/06/18 04:18:09;;;;;;;;;;;;;;;;;;5065284;28;20340;-80
2023/06/18 04:20:34;;;;;;;;;;;;;;;;;;5112134;28;20016;-80
2023/06/18 04:23:00;;;;;;;;;;;;;;;;;;5112442;28;19920;-80
2023/06/18 04:25:26;;;;;;;;;;;;;;;;;;5112472;28;19926;-81
2023/06/18 04:27:52;;;;;;;;;;;;;;;;;;5112488;28;19923;-80
2023/06/18 04:30:18;;;;;;;;;;;;;;;;;;5094931;28;19924;-81
2023/06/18 04:32:45;;;;;;;;;;;;;;;;;;5112572;28;19973;-80
2023/06/18 04:35:11;;;;;;;;;;;;;;;;;;5112466;28;19920;-80
2023/06/18 04:37:37;;;;;;;;;;;;;;;;;;5109944;28;20006;-80
2023/06/18 04:40:04;;;;;;;;;;;;;;;;;;5057871;28;20392;-81
2023/06/18 04:42:30;;;;;;;;;;;;;;;;;;5058413;28;19920;-80
2023/06/18 04:44:56;;;;;;;;;;;;;;;;;;5058526;28;19920;-80
2023/06/18 04:47:21;;;;;;;;;;;;;;;;;;5058395;28;20396;-80
2023/06/18 04:49:47;;;;;;;;;;;;;;;;;;5091518;28;19972;-80
2023/06/18 04:52:14;;;;;;;;;;;;;;;;;;5091747;28;19967;-80
2023/06/18 04:54:40;;;;;;;;;;;;;;;;;;5091890;28;19924;-80
2023/06/18 04:57:06;;;;;;;;;;;;;;;;;;5091751;28;20002;-79
2023/06/18 04:59:40;;;;;;;;;;;;;;;;;;5079239;28;19920;-81
2023/06/18 05:02:06;;;;;;;;;;;;;;;;;;5061954;28;19927;-80
2023/06/18 05:04:32;;;;;;;;;;;;;;;;;;5078849;28;19920;-80
2023/06/18 05:06:57;;;;;;;;;;;;;;;;;;5062324;28;20387;-80
2023/06/18 05:09:23;;;;;;;;;;;;;;;;;;5061728;28;19924;-81
2023/06/18 05:11:49;;;;;;;;;;;;;;;;;;5061719;28;20342;-80
2023/06/18 05:14:15;;;;;;;;;;;;;;;;;;5061920;28;19920;-81
2023/06/18 05:16:41;;;;;;;;;;;;;;;;;;5078674;28;19924;-81
2023/06/18 05:19:07;;;;;;;;;;;;;;;;;;5067428;28;19989;-81
2023/06/18 05:21:33;;;;;;;;;;;;;;;;;;5095170;28;20372;-81
2023/06/18 05:23:59;;;;;;;;;;;;;;;;;;5078678;28;19920;-81
2023/06/18 05:26:27;;;;;;;;;;;;;;;;;;5078225;28;19943;-80
2023/06/18 05:28:53;;;;;;;;;;;;;;;;;;5095085;28;19920;-81
2023/06/18 05:31:19;;;;;;;;;;;;;;;;;;5094545;28;19924;-80
2023/06/18 05:33:44;;;;;;;;;;;;;;;;;;5078210;28;19927;-81
2023/06/18 05:36:10;;;;;;;;;;;;;;;;;;5095079;28;19920;-81
2023/06/18 05:38:36;;;;;;;;;;;;;;;;;;5078073;28;19924;-80
2023/06/18 05:41:02;;;;;;;;;;;;;;;;;;5060646;28;20373;-80
2023/06/18 05:43:28;;;;;;;;;;;;;;;;;;5076387;28;20408;-81
2023/06/18 05:45:54;;;;;;;;;;;;;;;;;;5115059;28;19931;-80
2023/06/18 05:48:20;;;;;;;;;;;;;;;;;;5097404;28;20380;-81
2023/06/18 05:50:46;;;;;;;;;;;;;;;;;;5114708;28;19924;-80
2023/06/18 05:53:12;;;;;;;;;;;;;;;;;;5115137;28;20415;-81
2023/06/18 05:55:38;;;;;;;;;;;;;;;;;;5114994;28;19973;-80
2023/06/18 05:58:03;;;;;;;;;;;;;;;;;;5114978;28;20299;-80
2023/06/18 06:00:30;;;;;;;;;;;;;;;;;;5097381;28;19920;-80
2023/06/18 06:02:56;;;;;;;;;;;;;;;;;;5114804;28;19920;-80
2023/06/18 06:05:22;;;;;;;;;;;;;;;;;;5114911;28;19923;-81
2023/06/18 06:07:48;;;;;;;;;;;;;;;;;;5097923;28;19972;-81
2023/06/18 06:10:13;;;;;;;;;;;;;;;;;;5097378;28;20307;-80
2023/06/18 06:12:40;;;;;;;;;;;;;;;;;;5096629;28;20372;-80
2023/06/18 06:15:05;;;;;;;;;;;;;;;;;;5115175;28;19927;-81
2023/06/18 06:17:31;;;;;;;;;;;;;;;;;;5114992;28;19919;-80
2023/06/18 06:19:57;;;;;;;;;;;;;;;;;;5114158;28;19919;-80
2023/06/18 06:22:23;;;;;;;;;;;;;;;;;;5115034;28;20380;-80
2023/06/18 06:24:49;;;;;;;;;;;;;;;;;;5114999;28;19920;-80
2023/06/18 06:27:15;;;;;;;;;;;;;;;;;;5114403;28;19920;-80
2023/06/18 06:29:41;;;;;;;;;;;;;;;;;;5098183;28;19967;-80
2023/06/18 06:32:07;;;;;;;;;;;;;;;;;;5103243;28;19919;-80
2023/06/18 06:34:33;;;;;;;;;;;;;;;;;;5114289;28;20354;-81
2023/06/18 06:36:59;;;;;;;;;;;;;;;;;;5114440;28;19920;-80
2023/06/18 06:39:25;;;;;;;;;;;;;;;;;;5094731;28;19920;-80
2023/06/18 06:41:50;;;;;;;;;;;;;;;;;;5076906;28;19927;-80
2023/06/18 06:44:16;;;;;;;;;;;;;;;;;;5076882;28;19920;-80
2023/06/18 06:46:43;;;;;;;;;;;;;;;;;;5094075;28;19920;-80
2023/06/18 06:49:09;;;;;;;;;;;;;;;;;;5093924;28;19927;-80
2023/06/18 06:51:35;;;;;;;;;;;;;;;;;;5093174;28;19924;-80
2023/06/18 06:54:01;;;;;;;;;;;;;;;;;;5077105;28;19927;-80
2023/06/18 06:56:27;;;;;;;;;;;;;;;;;;5076658;28;19919;-80
2023/06/18 06:58:53;;;;;;;;;;;;;;;;;;5091423;28;20180;-81
2023/06/18 07:01:20;;;;;;;;;;;;;;;;;;5096558;28;19925;-80
2023/06/18 07:03:46;;;;;;;;;;;;;;;;;;5096865;28;19919;-81
2023/06/18 07:06:12;;;;;;;;;;;;;;;;;;5113674;28;19946;-81
2023/06/18 07:08:38;;;;;;;;;;;;;;;;;;5101587;28;19973;-81
2023/06/18 07:11:04;;;;;;;;;;;;;;;;;;5092907;28;19928;-81
2023/06/18 07:13:30;;;;;;;;;;;;;;;;;;5093373;28;20323;-80
2023/06/18 07:15:56;;;;;;;;;;;;;;;;;;5093282;28;19920;-80
2023/06/18 07:18:22;;;;;;;;;;;;;;;;;;5093164;28;19945;-80
2023/06/18 07:20:47;;;;;;;;;;;;;;;;;;5092485;28;20297;-81
2023/06/18 07:23:13;;;;;;;;;;;;;;;;;;5092795;28;19924;-80
2023/06/18 07:25:39;;;;;;;;;;;;;;;;;;5093020;28;20376;-80
2023/06/18 07:28:05;;;;;;;;;;;;;;;;;;5100532;28;19919;-81
2023/06/18 07:30:31;;;;;;;;;;;;;;;;;;5112727;28;19973;-81
2023/06/18 07:32:57;;;;;;;;;;;;;;;;;;5082858;28;20368;-81
2023/06/18 07:35:23;;;;;;;;;;;;;;;;;;5070581;28;19926;-81
2023/06/18 07:37:49;;;;;;;;;;;;;;;;;;5113110;28;20372;-81
2023/06/18 07:40:15;;;;;;;;;;;;;;;;;;5112568;28;20007;-81
2023/06/18 07:42:50;;;;;;;;;;;;;;;;;;5089557;28;19966;-81
2023/06/18 07:45:25;;;;;;;;;;;;;;;;;;5058610;28;19920;-81
2023/06/18 07:47:50;;;;;;;;;;;;;;;;;;5092499;28;19920;-81
2023/06/18 07:50:16;;;;;;;;;;;;;;;;;;5095544;28;19937;-81
2023/06/18 07:52:42;;;;;;;;;;;;;;;;;;5075729;28;19920;-80
2023/06/18 07:55:08;;;;;;;;;;;;;;;;;;5058520;28;19981;-81
2023/06/18 07:57:34;;;;;;;;;;;;;;;;;;5058648;28;19924;-80
2023/06/18 08:00:00;;;;;;;;;;;;;;;;;;5074740;28;20385;-80
2023/06/18 08:02:26;;;;;;;;;;;;;;;;;;5073916;28;19931;-81
2023/06/18 08:04:53;;;;;;;;;;;;;;;;;;5074403;28;19927;-80
2023/06/18 08:07:31;;;;;;;;;;;;;;;;;;5091644;28;19919;-80
2023/06/18 08:09:57;;;;;;;;;;;;;;;;;;5090868;28;19938;-82
2023/06/18 08:12:23;;;;;;;;;;;;;;;;;;5091249;28;19920;-82
2023/06/18 08:14:49;;;;;;;;;;;;;;;;;;5091402;28;19966;-83
2023/06/18 08:17:17;;;;;;;;;;;;;;;;;;5074695;28;19990;-82
2023/06/18 08:19:44;;;;;;;;;;;;;;;;;;5057630;28;19973;-82
2023/06/18 08:22:10;;;;;;;;;;;;;;;;;;5057815;28;19927;-82
2023/06/18 08:24:43;;;;;;;;;;;;;;;;;;5091000;28;19920;-81
2023/06/18 08:27:09;;;;;;;;;;;;;;;;;;5091162;28;20011;-81
2023/06/18 08:29:35;;;;;;;;;;;;;;;;;;5091065;28;20008;-81
2023/06/18 08:32:04;;;;;;;;;;;;;;;;;;5091914;28;19928;-81
2023/06/18 08:34:30;;;;;;;;;;;;;;;;;;5081999;28;19920;-81
2023/06/18 08:36:57;;;;;;;;;;;;;;;;;;5061948;28;19926;-82
2023/06/18 08:39:23;;;;;;;;;;;;;;;;;;5061670;28;19920;-82
2023/06/18 08:41:49;;;;;;;;;;;;;;;;;;5100354;28;19954;-81
2023/06/18 08:44:17;;;;;;;;;;;;;;;;;;5095722;28;19985;-81
2023/06/18 08:46:43;;;;;;;;;;;;;;;;;;5096532;28;19945;-83
2023/06/18 08:49:09;;;;;;;;;;;;;;;;;;5095294;28;20018;-81
2023/06/18 08:51:35;;;;;;;;;;;;;;;;;;5077680;28;20281;-81
2023/06/18 08:54:01;;;;;;;;;;;;;;;;;;5061571;28;19920;-81
2023/06/18 09:01:38;;;;;;;;;;;;;;;;;;5064718;22;19925;-84
2023/06/18 09:04:15;;;;;;;;;;;;;;;;;;5056967;28;19981;-94
2023/06/18 10:05:52;;;;;;;;;;;;;;;;;;5079231;28;20288;-84
2023/06/18 10:08:17;;;;;;;;;;;;;;;;;;5047416;28;19920;-83
2023/06/18 10:10:44;;;;;;;;;;;;;;;;;;5042393;28;19925;-85
2023/06/18 10:13:11;;;;;;;;;;;;;;;;;;5040946;28;20375;-82
2023/06/18 10:15:37;;;;;;;;;;;;;;;;;;5043068;28;19921;-84
2023/06/18 10:18:02;;;;;;;;;;;;;;;;;;5040580;28;19928;-86
2023/06/18 10:20:29;;;;;;;;;;;;;;;;;;5040788;28;20296;-84
2023/06/18 10:22:55;;;;;;;;;;;;;;;;;;5041203;28;19921;-85
2023/06/18 10:25:21;;;;;;;;;;;;;;;;;;5041589;28;19924;-86
2023/06/18 10:27:46;;;;;;;;;;;;;;;;;;5041180;28;19924;-84
2023/06/18 10:30:12;;;;;;;;;;;;;;;;;;5046987;28;20314;-85
2023/06/18 10:32:39;;;;;;;;;;;;;;;;;;5039750;28;19925;-84
2023/06/18 10:35:09;;;;;;;;;;;;;;;;;;5021195;28;19947;-83
2023/06/18 10:37:39;;;;;;;;;;;;;;;;;;5040533;28;20384;-86
2023/06/18 10:40:13;;;;;;;;;;;;;;;;;;5040777;28;20015;-86
2023/06/18 10:42:39;;;;;;;;;;;;;;;;;;5041131;28;19921;-84
2023/06/18 10:45:17;;;;;;;;;;;;;;;;;;5041066;28;19925;-87
2023/06/18 10:47:47;;;;;;;;;;;;;;;;;;5040866;28;19927;-84
2023/06/18 10:50:13;;;;;;;;;;;;;;;;;;5057161;28;19925;-86
2023/06/18 10:52:39;;;;;;;;;;;;;;;;;;5047359;28;19974;-85
2023/06/18 10:55:06;;;;;;;;;;;;;;;;;;5060736;28;19920;-85
2023/06/18 10:57:32;;;;;;;;;;;;;;;;;;5060372;28;20287;-85
2023/06/18 10:59:58;;;;;;;;;;;;;;;;;;5066903;28;19964;-82
2023/06/18 11:02:28;;;;;;;;;;;;;;;;;;5040172;28;19924;-85
2023/06/18 11:04:54;;;;;;;;;;;;;;;;;;5040466;28;19920;-85
2023/06/18 11:07:23;;;;;;;;;;;;;;;;;;5040715;28;19920;-83
2023/06/18 11:10:04;;;;;;;;;;;;;;;;;;5039367;28;20342;-85
2023/06/18 11:12:30;;;;;;;;;;;;;;;;;;5041079;28;19971;-84
2023/06/18 11:14:56;;;;;;;;;;;;;;;;;;5045057;28;20384;-85
2023/06/18 11:17:33;;;;;;;;;;;;;;;;;;5039861;28;20367;-87
2023/06/18 11:19:59;;;;;;;;;;;;;;;;;;5040172;28;19978;-86
2023/06/18 11:22:26;;;;;;;;;;;;;;;;;;5040847;28;19948;-86
2023/06/18 11:24:52;;;;;;;;;;;;;;;;;;5040487;28;20390;-86
2023/06/18 11:27:18;;;;;;;;;;;;;;;;;;5040312;28;19921;-86
2023/06/18 11:29:53;;;;;;;;;;;;;;;;;;5049286;28;19921;-87
2023/06/18 11:32:19;;;;;;;;;;;;;;;;;;5055688;28;19928;-87
2023/06/18 11:34:45;;;;;;;;;;;;;;;;;;5036001;28;19921;-87
2023/06/18 11:40:07;;;;;;;;;;;;;;;;;;5056984;28;19920;-87
2023/06/18 11:45:18;;;;;;;;;;;;;;;;;;5057314;28;20327;-88
2023/06/18 11:47:44;;;;;;;;;;;;;;;;;;5075574;28;19943;-89
2023/06/18 11:50:10;;;;;;;;;;;;;;;;;;5046494;28;19944;-87
2023/06/18 11:52:36;;;;;;;;;;;;;;;;;;5029798;28;20284;-87
2023/06/18 11:55:02;;;;;;;;;;;;;;;;;;5029111;28;19921;-86
2023/06/18 11:57:28;;;;;;;;;;;;;;;;;;5045337;28;19928;-85
2023/06/18 11:59:54;;;;;;;;;;;;;;;;;;5035909;28;19921;-87
2023/06/18 12:02:20;;;;;;;;;;;;;;;;;;5054958;28;19921;-86
2023/06/18 12:04:56;;;;;;;;;;;;;;;;;;5055433;28;19960;-86
2023/06/18 12:07:25;;;;;;;;;;;;;;;;;;5038381;28;19924;-87
2023/06/18 12:10:03;;;;;;;;;;;;;;;;;;5028236;28;19931;-87
2023/06/18 12:12:29;;;;;;;;;;;;;;;;;;5068571;28;19971;-86
2023/06/18 12:14:55;;;;;;;;;;;;;;;;;;5039781;28;19925;-86
2023/06/18 12:17:21;;;;;;;;;;;;;;;;;;5038743;28;20308;-87
2023/06/18 12:19:47;;;;;;;;;;;;;;;;;;5038194;28;19924;-88
2023/06/18 12:22:13;;;;;;;;;;;;;;;;;;5055863;28;19932;-88
2023/06/18 12:24:39;;;;;;;;;;;;;;;;;;5055323;28;20299;-87
2023/06/18 12:29:34;;;;;;;;;;;;;;;;;;5069944;28;19920;-87
2023/06/18 12:32:00;;;;;;;;;;;;;;;;;;5059289;28;20435;-87
2023/06/18 12:34:26;;;;;;;;;;;;;;;;;;5036873;28;19952;-87
2023/06/18 12:36:51;;;;;;;;;;;;;;;;;;5033170;28;19933;-86
2023/06/18 12:39:17;;;;;;;;;;;;;;;;;;5026494;28;19971;-88
2023/06/18 12:41:44;;;;;;;;;;;;;;;;;;5035855;28;20376;-87
2023/06/18 12:44:10;;;;;;;;;;;;;;;;;;5041960;28;20005;-88
2023/06/18 12:46:36;;;;;;;;;;;;;;;;;;5038733;28;20315;-85
2023/06/18 12:49:10;;;;;;;;;;;;;;;;;;5067605;28;19924;-88
2023/06/18 12:51:36;;;;;;;;;;;;;;;;;;5032136;28;19924;-87
2023/06/18 12:57:06;;;;;;;;;;;;;;;;;;5078988;28;19919;-86
2023/06/18 13:02:03;;;;;;;;;;;;;;;;;;5053917;28;19921;-88
2023/06/18 13:04:39;;;;;;;;;;;;;;;;;;5035555;28;20019;-86
2023/06/18 13:07:16;;;;;;;;;;;;;;;;;;5032499;28;19970;-87
2023/06/18 13:09:52;;;;;;;;;;;;;;;;;;5031398;28;20007;-88
2023/06/18 13:12:19;;;;;;;;;;;;;;;;;;5039289;28;19924;-88
2023/06/18 13:14:48;;;;;;;;;;;;;;;;;;5033781;28;19921;-86
2023/06/18 13:17:15;;;;;;;;;;;;;;;;;;5040610;28;19965;-86
2023/06/18 13:22:49;;;;;;;;;;;;;;;;;;5070258;28;19918;-87
2023/06/18 13:25:15;;;;;;;;;;;;;;;;;;5049980;28;19920;-88
2023/06/18 13:27:54;;;;;;;;;;;;;;;;;;5042237;28;20360;-87
2023/06/18 13:30:20;;;;;;;;;;;;;;;;;;5058723;28;19924;-86
2023/06/18 13:35:42;;;;;;;;;;;;;;;;;;5059752;28;20007;-87
2023/06/18 13:41:02;;;;;;;;;;;;;;;;;;5058418;28;20374;-86
2023/06/18 13:43:42;;;;;;;;;;;;;;;;;;5038959;28;19920;-86
2023/06/18 13:46:08;;;;;;;;;;;;;;;;;;5040796;28;19921;-87
2023/06/18 13:48:52;;;;;;;;;;;;;;;;;;5078286;28;19920;-87
2023/06/18 13:51:18;;;;;;;;;;;;;;;;;;5061913;28;20015;-86
2023/06/18 13:53:56;;;;;;;;;;;;;;;;;;5056491;28;19956;-87
2023/06/18 13:56:24;;;;;;;;;;;;;;;;;;5043944;28;19921;-86
2023/06/18 13:58:50;;;;;;;;;;;;;;;;;;5042532;28;19926;-87
2023/06/18 14:01:16;;;;;;;;;;;;;;;;;;5042247;28;20007;-86
2023/06/18 14:03:58;;;;;;;;;;;;;;;;;;5034621;28;19927;-86
2023/06/18 14:06:24;;;;;;;;;;;;;;;;;;5040368;28;19920;-87
2023/06/18 14:08:50;;;;;;;;;;;;;;;;;;5042045;28;19991;-87
2023/06/18 14:11:16;;;;;;;;;;;;;;;;;;5058610;28;19924;-86
2023/06/18 14:13:43;;;;;;;;;;;;;;;;;;5041867;28;19928;-87
2023/06/18 14:16:14;;;;;;;;;;;;;;;;;;5058806;28;20530;-86
2023/06/18 14:18:42;;;;;;;;;;;;;;;;;;5042413;28;19921;-87
2023/06/18 14:21:12;;;;;;;;;;;;;;;;;;5058904;28;19920;-86
2023/06/18 14:23:38;;;;;;;;;;;;;;;;;;5041935;28;19921;-87
2023/06/18 14:26:04;;;;;;;;;;;;;;;;;;5041930;28;19920;-86
2023/06/18 14:28:31;;;;;;;;;;;;;;;;;;5040862;28;20724;-86
2023/06/18 14:30:57;;;;;;;;;;;;;;;;;;5041573;28;20003;-87
2023/06/18 14:33:27;;;;;;;;;;;;;;;;;;5056726;28;19927;-86
2023/06/18 14:35:52;;;;;;;;;;;;;;;;;;5048324;28;19942;-87
2023/06/18 14:38:18;;;;;;;;;;;;;;;;;;5041267;28;20437;-86
2023/06/18 14:40:44;;;;;;;;;;;;;;;;;;5040961;28;19920;-88
2023/06/18 14:43:22;;;;;;;;;;;;;;;;;;5041465;28;19920;-86
2023/06/18 14:45:52;;;;;;;;;;;;;;;;;;5041298;28;19956;-87
2023/06/18 14:48:18;;;;;;;;;;;;;;;;;;5041737;28;19925;-86
2023/06/18 14:50:54;;;;;;;;;;;;;;;;;;5058634;28;19970;-86
2023/06/18 14:53:20;;;;;;;;;;;;;;;;;;5040522;28;19950;-86
2023/06/18 14:55:54;;;;;;;;;;;;;;;;;;5037924;28;19921;-85
2023/06/18 14:58:20;;;;;;;;;;;;;;;;;;5037740;28;19921;-84
2023/06/18 15:00:48;;;;;;;;;;;;;;;;;;5040347;28;20057;-85
2023/06/18 15:05:45;;;;;;;;;;;;;;;;;;5057664;28;19948;-87
2023/06/18 15:08:11;;;;;;;;;;;;;;;;;;5057594;28;19948;-87
2023/06/18 15:10:44;;;;;;;;;;;;;;;;;;5040178;28;19929;-87
2023/06/18 15:13:10;;;;;;;;;;;;;;;;;;5040983;28;19932;-87
2023/06/18 15:15:36;;;;;;;;;;;;;;;;;;5040874;28;20273;-87
2023/06/18 15:18:17;;;;;;;;;;;;;;;;;;5041000;28;19943;-86
2023/06/18 15:20:45;;;;;;;;;;;;;;;;;;5041776;28;19920;-87
2023/06/18 15:23:10;;;;;;;;;;;;;;;;;;5057659;28;19927;-86
2023/06/18 15:28:08;;;;;;;;;;;;;;;;;;5057161;28;19928;-86
2023/06/18 15:30:51;;;;;;;;;;;;;;;;;;5040751;28;19971;-86
2023/06/18 15:33:17;;;;;;;;;;;;;;;;;;5056501;28;20046;-86
2023/06/18 15:35:43;;;;;;;;;;;;;;;;;;5033670;28;19967;-86
2023/06/18 15:38:09;;;;;;;;;;;;;;;;;;5036060;28;20397;-87
2023/06/18 15:40:42;;;;;;;;;;;;;;;;;;5038962;28;19924;-87
2023/06/18 15:43:08;;;;;;;;;;;;;;;;;;5054975;28;20024;-86
2023/06/18 15:45:40;;;;;;;;;;;;;;;;;;5037691;28;19971;-87
2023/06/18 15:48:06;;;;;;;;;;;;;;;;;;5040486;28;19965;-87
2023/06/18 15:53:10;;;;;;;;;;;;;;;;;;5058251;28;19947;-87
2023/06/18 15:55:47;;;;;;;;;;;;;;;;;;5045028;28;19921;-87
2023/06/18 15:58:15;;;;;;;;;;;;;;;;;;5038309;28;19963;-86
2023/06/18 16:00:51;;;;;;;;;;;;;;;;;;5052666;28;20169;-86
2023/06/18 16:03:17;;;;;;;;;;;;;;;;;;5040257;28;19936;-86
2023/06/18 16:05:44;;;;;;;;;;;;;;;;;;5039626;28;19921;-85
2023/06/18 16:08:12;;;;;;;;;;;;;;;;;;5063891;28;19921;-86
2023/06/18 16:10:41;;;;;;;;;;;;;;;;;;5035070;28;19951;-87
2023/06/18 16:13:09;;;;;;;;;;;;;;;;;;5051763;28;19964;-86
2023/06/18 16:15:34;;;;;;;;;;;;;;;;;;5039705;28;20014;-84
2023/06/18 16:18:00;;;;;;;;;;;;;;;;;;5039991;28;19928;-86
2023/06/18 16:20:45;;;;;;;;;;;;;;;;;;5042446;28;19921;-86
2023/06/18 16:23:11;;;;;;;;;;;;;;;;;;5028515;28;19968;-86
2023/06/18 16:25:38;;;;;;;;;;;;;;;;;;5056376;28;19927;-86
2023/06/18 16:28:04;;;;;;;;;;;;;;;;;;5039870;28;19967;-87
2023/06/18 16:30:30;;;;;;;;;;;;;;;;;;5035842;28;19979;-85
2023/06/18 16:33:00;;;;;;;;;;;;;;;;;;5079948;28;20078;-86
2023/06/18 16:35:26;;;;;;;;;;;;;;;;;;5042587;28;19920;-85
2023/06/18 16:37:53;;;;;;;;;;;;;;;;;;5039227;28;19935;-86
2023/06/18 16:40:24;;;;;;;;;;;;;;;;;;5051762;28;19928;-85
2023/06/18 16:42:52;;;;;;;;;;;;;;;;;;5045863;28;19926;-86
2023/06/18 16:45:17;;;;;;;;;;;;;;;;;;5040366;28;19921;-86
2023/06/18 16:47:54;;;;;;;;;;;;;;;;;;5044983;28;19930;-86
2023/06/18 16:50:20;;;;;;;;;;;;;;;;;;5036490;28;19925;-85
2023/06/18 16:52:47;;;;;;;;;;;;;;;;;;5036368;28;19942;-85
2023/06/18 16:55:13;;;;;;;;;;;;;;;;;;5066998;28;20012;-85
2023/06/18 16:57:39;;;;;;;;;;;;;;;;;;5057049;28;19967;-84
2023/06/18 17:00:05;;;;;;;;;;;;;;;;;;5052836;28;19959;-86
2023/06/18 17:02:31;;;;;;;;;;;;;;;;;;5042495;28;20405;-86
2023/06/18 17:04:58;;;;;;;;;;;;;;;;;;5047185;28;20002;-85
2023/06/18 17:07:23;;;;;;;;;;;;;;;;;;5048858;28;19924;-86
2023/06/18 17:09:49;;;;;;;;;;;;;;;;;;5059354;28;19927;-86
2023/06/18 17:12:16;;;;;;;;;;;;;;;;;;5042964;28;20384;-86
2023/06/18 17:14:42;;;;;;;;;;;;;;;;;;5050711;28;19946;-86
2023/06/18 17:17:08;;;;;;;;;;;;;;;;;;5063567;28;19963;-86
2023/06/18 17:19:34;;;;;;;;;;;;;;;;;;5053206;28;20281;-86
2023/06/18 17:22:08;;;;;;;;;;;;;;;;;;5074558;28;19927;-86
2023/06/18 17:24:34;;;;;;;;;;;;;;;;;;5059000;28;19920;-86
2023/06/18 17:27:08;;;;;;;;;;;;;;;;;;5042968;28;19921;-86
2023/06/18 17:29:34;;;;;;;;;;;;;;;;;;5059784;28;19920;-86
2023/06/18 17:32:00;;;;;;;;;;;;;;;;;;5051972;28;19931;-85
2023/06/18 17:34:26;;;;;;;;;;;;;;;;;;5074273;28;19920;-85
2023/06/18 17:36:52;;;;;;;;;;;;;;;;;;5063474;28;19924;-86
2023/06/18 17:39:26;;;;;;;;;;;;;;;;;;5049386;28;19943;-88
2023/06/18 17:41:52;;;;;;;;;;;;;;;;;;5044937;28;19963;-89
2023/06/18 17:44:25;;;;;;;;;;;;;;;;;;5049449;28;19920;-89
2023/06/18 17:46:51;;;;;;;;;;;;;;;;;;5080903;28;20365;-88
2023/06/18 17:52:22;;;;;;;;;;;;;;;;;;5106907;28;19930;-91
2023/06/18 17:54:48;;;;;;;;;;;;;;;;;;5048824;28;19935;-90
2023/06/18 17:57:14;;;;;;;;;;;;;;;;;;5047296;28;20018;-87
2023/06/18 17:59:46;;;;;;;;;;;;;;;;;;5043944;28;19963;-90
2023/06/18 18:02:14;;;;;;;;;;;;;;;;;;5045172;28;19979;-90
2023/06/18 18:04:40;;;;;;;;;;;;;;;;;;5055287;28;19932;-89
2023/06/18 18:07:06;;;;;;;;;;;;;;;;;;5080687;28;19924;-91
2023/06/18 18:09:33;;;;;;;;;;;;;;;;;;5081113;28;20022;-91
2023/06/18 18:11:59;;;;;;;;;;;;;;;;;;5045328;28;19948;-91
2023/06/18 18:14:38;;;;;;;;;;;;;;;;;;5063928;28;19980;-89
2023/06/18 18:17:04;;;;;;;;;;;;;;;;;;5065354;28;19940;-91
2023/06/18 18:22:18;;;;;;;;;;;;;;;;;;5062355;28;19920;-90
2023/06/18 18:24:44;;;;;;;;;;;;;;;;;;5049125;28;19920;-92
2023/06/18 18:27:12;;;;;;;;;;;;;;;;;;5053898;28;19924;-89
2023/06/18 18:29:38;;;;;;;;;;;;;;;;;;5065138;28;19972;-90